Time;durP1;ratioP1;P1;durP2;ratioP2;P2;SDS_P1;SDS_P2;PMS_P1;PMS_P2;Temp;Humidity;BMP_temperature;BMP_pressure;BME280_temperature;BME280_humidity;BME280_pressure;Samples;Min_cycle;Max_cycle;Signal;HPM_P1;HPM_P2
2023/06/29 00:04:25;;;;;;;5.53;2.47;;;;;;;-145.68;100.00;74151.47;10537667;28;20197;-74
2023/06/29 00:09:26;;;;;;;3.77;2.17;;;;;;;-145.68;100.00;74145.47;10519729;28;20218;-74
2023/06/29 00:14:26;;;;;;;5.03;2.20;;;;;;;-145.68;100.00;74141.47;10537379;28;20195;-75
2023/06/29 00:19:26;;;;;;;4.20;2.20;;;;;;;-145.68;100.00;74165.44;10537046;28;20278;-75
2023/06/29 00:24:28;;;;;;;8.27;2.87;;;;;;;-145.68;100.00;74171.44;10537152;28;20194;-75
2023/06/29 00:29:29;;;;;;;2.90;1.90;;;;;;;-145.68;100.00;74181.44;10536051;28;20279;-74
2023/06/29 00:34:31;;;;;;;5.27;2.30;;;;;;;-145.68;100.00;74191.44;10536523;28;20222;-75
2023/06/29 00:39:32;;;;;;;7.33;2.30;;;;;;;-145.68;100.00;74179.44;10517767;28;20210;-74
2023/06/29 00:44:33;;;;;;;6.17;2.90;;;;;;;-145.68;100.00;74193.44;10536532;28;20270;-74
2023/06/29 00:49:33;;;;;;;5.20;2.60;;;;;;;-145.68;100.00;74197.44;10535664;28;20231;-74
2023/06/29 00:54:33;;;;;;;3.40;2.80;;;;;;;-145.68;100.00;74205.44;10501563;28;20222;-74
2023/06/29 00:59:35;;;;;;;5.47;2.60;;;;;;;-145.68;100.00;74205.44;10517114;28;20194;-74
2023/06/29 01:04:37;;;;;;;7.63;3.00;;;;;;;-145.68;100.00;74197.44;10516919;28;20273;-75
2023/06/29 01:09:38;;;;;;;8.97;2.67;;;;;;;-145.68;100.00;74185.44;10517020;28;20230;-74
2023/06/29 01:14:41;;;;;;;8.70;2.80;;;;;;;-145.68;100.00;74183.44;10517390;28;20213;-75
2023/06/29 01:19:43;;;;;;;3.93;2.43;;;;;;;-145.68;100.00;74183.44;10516738;28;20281;-75
2023/06/29 01:24:44;;;;;;;4.73;2.40;;;;;;;-145.68;100.00;74189.44;10499916;28;20221;-75
2023/06/29 01:29:44;;;;;;;4.23;2.47;;;;;;;-145.68;100.00;74205.44;10516626;28;20772;-75
2023/06/29 01:34:45;;;;;;;2.77;2.27;;;;;;;-145.68;100.00;74195.44;10516330;28;20235;-75
2023/06/29 01:40:18;;;;;;;11.17;2.90;;;;;;;-145.68;100.00;74203.44;10534175;28;20202;-75
2023/06/29 01:45:20;;;;;;;7.53;2.60;;;;;;;-145.68;100.00;74211.44;10472779;28;20684;-75
2023/06/29 01:50:21;;;;;;;5.03;2.83;;;;;;;-145.68;100.00;74217.44;10515743;28;20238;-75
2023/06/29 01:55:21;;;;;;;7.03;2.67;;;;;;;-145.68;100.00;74217.44;10516203;28;20281;-75
2023/06/29 02:00:24;;;;;;;4.23;2.53;;;;;;;-145.68;100.00;74221.44;10533749;28;20210;-75
2023/06/29 02:05:26;;;;;;;5.87;2.60;;;;;;;-145.68;100.00;74231.41;10534050;28;20186;-75
2023/06/29 02:10:26;;;;;;;4.73;2.40;;;;;;;-145.68;100.00;74227.41;10533531;28;20218;-75
2023/06/29 02:15:26;;;;;;;3.27;2.53;;;;;;;-145.68;100.00;74227.41;10515559;28;20197;-75
2023/06/29 02:20:27;;;;;;;2.90;2.60;;;;;;;-145.68;100.00;74217.44;10515390;28;20187;-75
2023/06/29 02:25:27;;;;;;;7.57;2.67;;;;;;;-145.68;100.00;74209.44;10515580;28;20190;-75
2023/06/29 02:30:29;;;;;;;7.07;2.73;;;;;;;-145.68;100.00;74207.44;10515116;28;20211;-75
2023/06/29 02:35:31;;;;;;;5.37;2.90;;;;;;;-145.68;100.00;74213.44;10515171;28;20245;-75
2023/06/29 02:40:31;;;;;;;4.73;2.60;;;;;;;-145.68;100.00;74209.44;10498415;28;20203;-74
2023/06/29 02:45:32;;;;;;;3.27;2.60;;;;;;;-145.68;100.00;74213.44;10514916;28;20198;-75
2023/06/29 02:50:33;;;;;;;4.60;2.47;;;;;;;-145.68;100.00;74209.44;10515965;28;20256;-75
2023/06/29 02:55:35;;;;;;;5.23;2.70;;;;;;;-145.68;100.00;74215.44;10522531;28;20182;-75
2023/06/29 03:00:35;;;;;;;7.70;2.80;;;;;;;-145.68;100.00;74219.44;10540149;28;20186;-74
2023/06/29 03:05:35;;;;;;;7.23;3.07;;;;;;;-145.68;100.00;74227.41;10519300;28;20191;-75
2023/06/29 03:10:36;;;;;;;6.03;2.40;;;;;;;-145.68;100.00;74231.41;10518137;28;20210;-75
2023/06/29 03:15:37;;;;;;;5.80;2.67;;;;;;;-145.68;100.00;74229.41;10536069;28;20189;-75
2023/06/29 03:20:37;;;;;;;5.87;2.57;;;;;;;-145.68;100.00;74221.44;10535828;28;20216;-75
2023/06/29 03:25:37;;;;;;;6.53;2.73;;;;;;;-145.68;100.00;74213.44;10517643;28;20278;-75
2023/06/29 03:30:38;;;;;;;5.10;2.70;;;;;;;-145.68;100.00;74215.44;10534849;28;20261;-74
2023/06/29 03:35:38;;;;;;;4.83;3.00;;;;;;;-145.68;100.00;74225.41;10535136;28;20381;-74
2023/06/29 03:40:38;;;;;;;8.10;2.90;;;;;;;-145.68;100.00;74217.44;10534899;28;20210;-75
2023/06/29 03:45:40;;;;;;;4.33;2.50;;;;;;;-145.68;100.00;74199.44;10535877;28;20218;-75
2023/06/29 03:50:40;;;;;;;4.00;2.43;;;;;;;-145.68;100.00;74201.44;10534047;28;20701;-75
2023/06/29 03:55:40;;;;;;;7.00;2.33;;;;;;;-145.68;100.00;74197.44;10534454;28;20564;-74
2023/06/29 04:00:42;;;;;;;5.63;3.20;;;;;;;-145.68;100.00;74191.44;10533741;28;20198;-75
2023/06/29 04:05:42;;;;;;;4.33;2.47;;;;;;;-145.68;100.00;74167.44;10535563;28;20183;-75
2023/06/29 04:10:42;;;;;;;2.83;2.50;;;;;;;-145.68;100.00;74135.47;10537639;28;20214;-74
2023/06/29 04:15:43;;;;;;;8.90;2.73;;;;;;;-145.68;100.00;74103.47;10502349;28;20194;-75
2023/06/29 04:20:43;;;;;;;2.70;2.30;;;;;;;-145.68;100.00;74079.50;10537582;28;20182;-74
2023/06/29 04:25:43;;;;;;;7.53;2.63;;;;;;;-145.68;100.00;74065.50;10518857;28;20186;-74
2023/06/29 04:30:44;;;;;;;4.17;2.40;;;;;;;-145.68;100.00;74031.50;10536877;28;20221;-75
2023/06/29 04:35:44;;;;;;;9.60;2.43;;;;;;;-145.68;100.00;74003.53;10536850;28;20190;-74
2023/06/29 04:40:45;;;;;;;5.60;2.20;;;;;;;-145.68;100.00;73965.53;10536055;28;20217;-75
2023/06/29 04:45:46;;;;;;;8.13;2.80;;;;;;;-145.68;100.00;73925.56;10518643;28;20196;-75
2023/06/29 04:50:46;;;;;;;5.97;2.40;;;;;;;-145.68;99.38;73889.56;10535702;28;20210;-75
2023/06/29 04:55:46;;;;;;;3.28;1.95;;;;;;;-145.68;95.95;73853.59;10518269;28;20278;-75
2023/06/29 05:00:47;;;;;;;3.65;2.08;;;;;;;-145.68;92.93;73823.63;10517399;28;20189;-75
2023/06/29 05:05:47;;;;;;;6.80;2.05;;;;;;;-145.68;91.63;73777.63;10535740;28;20296;-74
2023/06/29 05:10:48;;;;;;;4.65;2.20;;;;;;;-145.68;88.72;73737.66;10535148;28;20222;-74
2023/06/29 05:15:48;;;;;;;2.25;1.67;;;;;;;-145.68;87.00;73703.69;10535084;28;20238;-74
2023/06/29 05:20:48;;;;;;;6.63;1.88;;;;;;;-145.68;84.72;73653.69;10535306;28;20190;-74
2023/06/29 05:25:49;;;;;;;4.78;2.08;;;;;;;-145.68;83.03;73619.72;10534737;28;20626;-74
2023/06/29 05:30:49;;;;;;;4.95;2.03;;;;;;;-145.68;81.13;73563.75;10534646;28;20795;-74
2023/06/29 05:35:49;;;;;;;4.72;1.65;;;;;;;-145.68;78.22;73531.78;10516702;28;20642;-74
2023/06/29 05:40:50;;;;;;;5.88;1.90;;;;;;;-145.68;77.19;73489.81;10534309;28;20638;-75
2023/06/29 05:45:50;;;;;;;7.70;2.28;;;;;;;-145.68;75.09;73455.81;10534544;28;20316;-74
2023/06/29 05:50:50;;;;;;;3.53;2.30;;;;;;;-145.68;73.25;73407.84;10516324;28;20214;-74
2023/06/29 05:55:51;;;;;;;2.75;2.00;;;;;;;-145.68;71.96;73345.88;10534030;28;20202;-74
2023/06/29 06:00:51;;;;;;;5.32;1.92;;;;;;;-145.68;69.53;73305.91;10534285;28;20273;-74
2023/06/29 06:05:52;;;;;;;4.63;2.00;;;;;;;-145.68;67.57;73259.94;10533773;28;20191;-75
2023/06/29 06:10:52;;;;;;;4.57;2.05;;;;;;;-145.68;66.18;73196.00;10533637;28;20588;-75
2023/06/29 06:15:52;;;;;;;4.18;1.63;;;;;;;-145.68;64.77;73148.03;10569980;28;20663;-74
2023/06/29 06:20:53;;;;;;;6.45;1.77;;;;;;;-145.68;61.33;73072.06;10557544;28;20556;-75
2023/06/29 06:25:53;;;;;;;3.10;1.65;;;;;;;-145.68;58.56;72988.13;10577937;28;20193;-75
2023/06/29 06:30:53;;;;;;;3.72;1.42;;;;;;;-145.68;55.64;72832.25;10582174;28;20206;-75
2023/06/29 06:35:54;;;;;;;5.47;1.33;;;;;;;-145.68;52.76;72744.31;10583247;28;20205;-75
2023/06/29 06:40:54;;;;;;;4.25;1.67;;;;;;;-145.68;49.03;72536.50;10583491;28;20206;-75
2023/06/29 06:45:54;;;;;;;6.80;1.52;;;;;;;-145.68;44.95;72544.50;10583016;28;20238;-75
2023/06/29 06:50:55;;;;;;;5.63;1.50;;;;;;;-145.68;47.32;72688.38;10564997;28;20209;-75
2023/06/29 06:55:55;;;;;;;2.67;1.40;;;;;;;-145.68;40.71;72260.72;10581149;28;20859;-75
2023/06/29 07:01:54;;;;;;;3.13;1.23;;;;;;;-145.68;41.24;72312.69;10579652;28;20558;-73
2023/06/29 07:06:54;;;;;;;1.55;1.10;;;;;;;-145.68;41.46;72422.59;10580213;28;20229;-74
2023/06/29 07:11:54;;;;;;;2.97;1.45;;;;;;;-145.68;40.30;72304.69;10580690;28;20212;-74
2023/06/29 07:16:55;;;;;;;4.13;1.35;;;;;;;-145.68;40.33;72296.69;10580653;28;20217;-74
2023/06/29 07:21:55;;;;;;;3.47;1.60;;;;;;;-145.68;36.19;71933.03;10579410;28;20200;-74
2023/06/29 07:26:56;;;;;;;1.60;1.30;;;;;;;-145.68;38.32;72034.94;10578276;28;20270;-74
2023/06/29 07:31:56;;;;;;;3.20;1.00;;;;;;;-145.68;34.86;71741.25;10560566;28;20234;-74
2023/06/29 07:36:57;;;;;;;1.73;1.00;;;;;;;-145.68;36.35;71851.13;10578380;28;20420;-74
2023/06/29 07:41:57;;;;;;;2.70;1.20;;;;;;;-145.68;34.81;71747.25;10577785;28;20196;-75
2023/06/29 07:46:58;;;;;;;3.57;1.23;;;;;;;-145.68;35.81;71723.25;10579230;28;21066;-74
2023/06/29 07:51:59;;;;;;;4.60;1.23;;;;;;;-145.68;35.27;71753.22;10577835;28;20436;-74
2023/06/29 07:56:59;;;;;;;2.20;1.13;;;;;;;-145.68;36.65;71863.13;10578548;28;20189;-74
2023/06/29 08:01:59;;;;;;;2.45;1.23;;;;;;;-145.68;37.23;71925.06;10577629;28;20580;-73
2023/06/29 08:07:00;;;;;;;3.67;1.50;;;;;;;-145.68;38.39;72098.88;10577973;28;20252;-74
2023/06/29 08:12:00;;;;;;;1.75;1.48;;;;;;;-145.68;39.94;72246.75;10577369;28;20681;-73
2023/06/29 08:17:02;;;;;;;1.88;1.20;;;;;;;-145.68;39.51;72152.84;10578089;28;20192;-74
2023/06/29 08:22:03;;;;;;;4.85;1.70;;;;;;;-145.68;37.81;72072.91;10577458;28;20189;-74
2023/06/29 08:27:03;;;;;;;3.28;1.38;;;;;;;-145.68;36.42;71815.16;10576726;28;20209;-74
2023/06/29 08:32:04;;;;;;;1.95;1.10;;;;;;;-145.68;37.46;72004.97;10576265;28;20234;-74
2023/06/29 08:37:05;;;;;;;3.80;1.20;;;;;;;-145.68;36.05;71847.13;10576863;28;20243;-75
2023/06/29 08:42:06;;;;;;;3.65;1.80;;;;;;;-145.68;39.85;72266.72;10576359;28;20274;-74
2023/06/29 08:47:07;;;;;;;6.65;1.50;;;;;;;-145.68;38.73;72132.84;10557903;28;20308;-74
2023/06/29 08:52:11;;;;;;;3.53;1.30;;;;;;;-145.68;37.61;72002.97;10575720;28;20276;-73
2023/06/29 08:57:12;;;;;;;1.42;1.25;;;;;;;-145.68;37.37;72012.97;10558181;28;20613;-73
2023/06/29 09:02:12;;;;;;;3.58;1.35;;;;;;;-145.68;37.76;71883.09;10575257;28;20199;-74
2023/06/29 09:07:15;;;;;;;4.38;1.20;;;;;;;-145.68;36.27;71789.19;10575789;28;20578;-74
2023/06/29 09:12:17;;;;;;;1.95;1.30;;;;;;;-145.68;33.27;71563.44;10575325;28;20200;-74
2023/06/29 09:17:18;;;;;;;1.77;1.20;;;;;;;-145.68;35.01;71773.22;10575045;28;20269;-73
2023/06/29 09:22:19;;;;;;;1.40;1.15;;;;;;;-145.68;37.68;71981.00;10575427;28;20871;-73
2023/06/29 09:27:19;;;;;;;3.03;1.20;;;;;;;-145.68;37.47;72038.94;10575232;28;20228;-74
2023/06/29 09:32:20;;;;;;;1.65;1.42;;;;;;;-145.68;38.10;71983.00;10574004;28;20701;-73
2023/06/29 09:37:20;;;;;;;2.97;1.27;;;;;;;-145.68;36.55;71899.09;10575018;28;20566;-74
2023/06/29 09:42:20;;;;;;;6.53;1.50;;;;;;;-145.68;36.03;71921.06;10574190;28;20304;-74
2023/06/29 09:47:23;;;;;;;5.20;1.70;;;;;;;-145.68;36.30;71933.03;10574431;28;20248;-73
2023/06/29 09:52:23;;;;;;;1.58;1.10;;;;;;;-145.68;33.66;71601.41;10556841;28;20626;-74
2023/06/29 09:57:25;;;;;;;3.40;1.40;;;;;;;-145.68;32.52;71413.59;10573992;28;20239;-73
2023/06/29 10:02:26;;;;;;;1.95;1.30;;;;;;;-145.68;31.98;71379.63;10578289;28;20427;-74
2023/06/29 10:07:26;;;;;;;2.97;1.50;;;;;;;-145.68;31.80;71413.59;10582327;28;20216;-74
2023/06/29 10:12:27;;;;;;;3.05;1.30;;;;;;;-145.68;32.21;71351.66;10579831;28;20447;-74
2023/06/29 10:17:49;;;;;;;4.25;1.35;;;;;;;-145.68;33.45;71481.53;10564050;28;20675;-74
2023/06/29 10:22:50;;;;;;;3.35;1.50;;;;;;;-145.68;32.36;71435.56;10563920;28;20190;-74
2023/06/29 10:27:52;;;;;;;1.20;1.00;;;;;;;-145.68;34.82;71723.25;10563620;28;20213;-74
2023/06/29 10:32:53;;;;;;;1.65;1.20;;;;;;;-145.68;32.51;71515.47;10559801;28;20328;-76
2023/06/29 10:37:57;;;;;;;2.30;1.13;;;;;;;-145.68;31.45;71341.69;10566994;28;20229;-76
2023/06/29 10:42:58;;;;;;;1.60;1.23;;;;;;;-145.68;29.60;71187.84;10556823;28;20214;-75
2023/06/29 10:47:58;;;;;;;2.47;1.20;;;;;;;-145.68;30.96;71425.59;10561778;28;20704;-74
2023/06/29 10:53:00;;;;;;;2.35;1.48;;;;;;;-145.68;33.17;71559.44;10577889;28;20198;-74
2023/06/29 10:58:20;;;;;;;2.03;1.15;;;;;;;-145.68;31.57;71437.56;10537190;28;20277;-75
2023/06/29 11:03:21;;;;;;;3.15;1.20;;;;;;;-145.68;34.21;71729.25;10536842;28;20267;-75
2023/06/29 11:08:23;;;;;;;1.95;1.20;;;;;;;-145.68;33.45;71695.28;10554046;28;20217;-74
2023/06/29 11:13:23;;;;;;;1.40;1.30;;;;;;;-145.68;32.11;71461.53;10549031;28;20669;-75
2023/06/29 11:18:23;;;;;;;2.13;1.38;;;;;;;-145.68;34.68;71887.09;10569713;28;20190;-75
2023/06/29 11:23:24;;;;;;;2.60;1.23;;;;;;;-145.68;33.75;71651.34;10578463;28;20305;-75
2023/06/29 11:28:24;;;;;;;2.47;1.10;;;;;;;-145.68;32.82;71793.19;10572206;28;20582;-75
2023/06/29 11:33:24;;;;;;;1.65;1.10;;;;;;;-145.68;31.34;71441.56;10575835;28;20763;-75
2023/06/29 11:38:25;;;;;;;2.20;1.37;;;;;;;-145.68;32.32;71497.50;10564401;28;20218;-76
2023/06/29 11:43:25;;;;;;;1.63;1.30;;;;;;;-145.68;31.06;71589.41;10573041;28;20977;-74
2023/06/29 11:48:29;;;;;;;2.73;1.20;;;;;;;-145.68;29.78;74019.50;10526085;28;20226;-74
2023/06/29 11:53:29;;;;;;;2.03;1.27;;;;;;;-145.68;29.17;72430.59;10514843;28;20443;-74
2023/06/29 11:58:33;;;;;;;2.78;1.25;;;;;;;-145.68;31.65;71855.13;10563114;28;20213;-78
2023/06/29 12:03:34;;;;;;;3.92;1.63;;;;;;;-145.68;30.48;71671.31;10567115;28;20223;-75
2023/06/29 12:08:41;;;;;;;1.45;1.15;;;;;;;-145.68;30.72;71661.31;10555517;28;20338;-73
2023/06/29 12:13:45;;;;;;;1.80;1.08;;;;;;;-145.68;29.83;71445.56;10574358;28;20182;-73
2023/06/29 12:18:47;;;;;;;2.00;1.20;;;;;;;-145.68;29.78;71471.53;10568090;28;20185;-73
2023/06/29 12:23:48;;;;;;;2.60;1.20;;;;;;;-145.68;31.96;71729.25;10559816;28;20234;-75
2023/06/29 12:28:48;;;;;;;3.08;1.27;;;;;;;-145.68;31.65;71647.34;10546293;28;20622;-74
2023/06/29 12:33:48;;;;;;;3.00;1.20;;;;;;;-145.68;30.53;71507.50;10538290;28;20222;-74
2023/06/29 12:38:49;;;;;;;3.57;1.50;;;;;;;-145.68;29.80;71359.66;10541011;28;20805;-74
2023/06/29 12:43:50;;;;;;;1.98;1.33;;;;;;;-145.68;29.31;71229.81;10545009;28;20551;-75
2023/06/29 12:48:50;;;;;;;2.00;1.45;;;;;;;-145.68;29.16;71171.88;10549427;28;20225;-74
2023/06/29 12:53:51;;;;;;;1.83;1.23;;;;;;;-145.68;28.24;71052.03;10572600;28;20194;-74
2023/06/29 12:58:51;;;;;;;1.33;1.20;;;;;;;-145.68;26.75;70854.28;10547878;28;20534;-74
2023/06/29 13:03:51;;;;;;;1.23;1.13;;;;;;;-145.68;28.70;71173.88;10570933;28;20447;-74
2023/06/29 13:08:53;;;;;;;2.83;1.27;;;;;;;-145.68;28.29;71201.84;10568077;28;20509;-74
2023/06/29 13:13:53;;;;;;;3.00;1.55;;;;;;;-145.68;28.05;71034.03;10571271;28;20478;-74
2023/06/29 13:18:53;;;;;;;2.80;1.60;;;;;;;-145.68;27.67;70890.22;10553790;28;20271;-75
2023/06/29 13:23:54;;;;;;;4.20;1.13;;;;;;;-145.68;27.41;70940.16;10546863;28;20546;-74
2023/06/29 13:28:54;;;;;;;2.73;1.40;;;;;;;-145.68;26.44;70908.19;10542448;28;20458;-74
2023/06/29 13:33:55;;;;;;;1.40;1.30;;;;;;;-145.68;26.73;70796.34;10562006;28;20471;-75
2023/06/29 13:38:55;;;;;;;3.22;1.30;;;;;;;-145.68;26.80;70826.31;10541583;28;20344;-75
2023/06/29 13:43:56;;;;;;;3.47;1.35;;;;;;;-145.68;26.61;70730.44;10541061;28;20200;-75
2023/06/29 13:48:56;;;;;;;1.30;1.00;;;;;;;-145.68;25.89;70504.72;10542741;28;20303;-73
2023/06/29 13:53:57;;;;;;;1.40;1.10;;;;;;;-145.68;25.55;70722.44;10556813;28;20189;-74
2023/06/29 13:58:58;;;;;;;1.52;1.42;;;;;;;-145.68;25.98;70622.56;10526124;28;20209;-74
2023/06/29 14:04:00;;;;;;;2.20;1.30;;;;;;;-145.68;25.64;70594.59;10560182;28;20587;-74
2023/06/29 14:09:02;;;;;;;2.53;1.40;;;;;;;-145.68;25.16;70492.75;10569219;28;20355;-74
2023/06/29 14:14:02;;;;;;;3.55;1.33;;;;;;;-145.68;26.54;70752.41;10534246;28;20197;-73
2023/06/29 14:19:03;;;;;;;2.47;1.38;;;;;;;-145.68;27.68;71064.00;10534606;28;20209;-73
2023/06/29 14:24:03;;;;;;;2.17;1.40;;;;;;;-145.68;28.90;71249.78;10558408;28;20220;-73
2023/06/29 14:29:04;;;;;;;1.70;1.60;;;;;;;-145.68;29.93;71307.72;10569233;28;20616;-73
2023/06/29 14:34:04;;;;;;;4.00;1.30;;;;;;;-145.68;29.62;71281.75;10571966;28;20261;-73
2023/06/29 14:39:05;;;;;;;2.83;1.50;;;;;;;-145.68;28.16;71123.94;10571416;28;20308;-74
2023/06/29 14:44:05;;;;;;;2.72;1.58;;;;;;;-145.68;29.72;71089.97;10571801;28;20830;-73
2023/06/29 14:49:06;;;;;;;3.43;1.30;;;;;;;-145.68;29.30;71078.00;10576719;28;20273;-73
2023/06/29 14:54:06;;;;;;;1.52;1.42;;;;;;;-145.68;28.11;70990.09;10579729;28;20465;-74
2023/06/29 14:59:07;;;;;;;5.40;1.77;;;;;;;-145.68;28.42;71012.06;10577128;28;20296;-73
2023/06/29 15:04:07;;;;;;;4.17;1.30;;;;;;;-145.68;27.52;70842.28;10577121;28;20276;-74
2023/06/29 15:09:08;;;;;;;1.95;1.40;;;;;;;-145.68;27.82;70872.25;10578788;28;20435;-73
2023/06/29 15:14:08;;;;;;;4.30;1.60;;;;;;;-145.68;28.31;70910.19;10580564;28;20196;-73
2023/06/29 15:19:08;;;;;;;2.17;1.40;;;;;;;-145.68;28.34;71026.06;10580191;28;20213;-73
2023/06/29 15:24:09;;;;;;;2.10;1.67;;;;;;;-145.68;29.34;71078.00;10579244;28;20919;-72
2023/06/29 15:29:09;;;;;;;2.83;1.50;;;;;;;-145.68;29.80;71113.94;10577282;28;20816;-73
2023/06/29 15:34:10;;;;;;;1.65;1.20;;;;;;;-145.68;28.00;70898.22;10559681;28;20467;-74
2023/06/29 15:39:10;;;;;;;2.45;1.40;;;;;;;-145.68;26.39;70622.56;10577375;28;20217;-74
2023/06/29 15:44:10;;;;;;;4.77;1.40;;;;;;;-145.68;26.89;70762.38;10577877;28;20197;-74
2023/06/29 15:49:11;;;;;;;1.60;1.50;;;;;;;-145.68;26.03;70650.53;10576913;28;20458;-74
2023/06/29 15:54:11;;;;;;;3.03;1.60;;;;;;;-145.68;25.98;70586.63;10577336;28;20450;-74
2023/06/29 15:59:12;;;;;;;2.10;1.20;;;;;;;-145.68;26.67;70662.50;10577055;28;20217;-74
2023/06/29 16:04:13;;;;;;;4.33;1.40;;;;;;;-145.68;28.08;70928.19;10575461;28;20467;-74
2023/06/29 16:09:14;;;;;;;3.60;1.77;;;;;;;-145.68;28.57;70976.13;10576005;28;20941;-74
2023/06/29 16:14:14;;;;;;;3.93;1.60;;;;;;;-145.68;29.55;71137.91;10576390;28;20186;-73
2023/06/29 16:19:16;;;;;;;3.47;1.97;;;;;;;-145.68;30.51;71257.78;10537378;28;20480;-73
2023/06/29 16:24:18;;;;;;;5.20;1.67;;;;;;;-145.68;30.57;71267.75;10537528;28;20482;-72
2023/06/29 16:29:18;;;;;;;3.85;1.60;;;;;;;-145.68;31.39;71349.66;10536596;28;20194;-73
2023/06/29 16:34:19;;;;;;;3.50;1.70;;;;;;;-145.68;33.71;71535.47;10537072;28;20729;-73
2023/06/29 16:39:19;;;;;;;1.90;1.20;;;;;;;-145.68;32.97;71443.56;10536248;28;20929;-73
2023/06/29 16:44:19;;;;;;;2.20;1.50;;;;;;;-145.68;32.38;71465.53;10536495;28;20436;-73
2023/06/29 16:49:20;;;;;;;2.27;1.33;;;;;;;-145.68;33.10;71491.50;10536007;28;20275;-73
2023/06/29 16:54:21;;;;;;;4.32;1.77;;;;;;;-145.68;34.68;71593.41;10535888;28;20440;-73
2023/06/29 16:59:21;;;;;;;2.92;1.60;;;;;;;-145.68;33.54;71573.41;10517466;28;20352;-73
2023/06/29 17:04:21;;;;;;;2.90;1.50;;;;;;;-145.68;34.79;71649.34;10535637;28;20702;-73
2023/06/29 17:09:22;;;;;;;2.88;1.52;;;;;;;-145.68;35.85;71709.28;10535020;28;20921;-73
2023/06/29 17:14:22;;;;;;;2.97;1.88;;;;;;;-145.68;35.75;71763.22;10534913;28;20194;-73
2023/06/29 17:19:22;;;;;;;3.10;1.55;;;;;;;-145.68;37.16;71765.22;10535033;28;20214;-73
2023/06/29 17:24:23;;;;;;;6.07;1.70;;;;;;;-145.68;36.42;71773.22;10534876;28;20206;-73
2023/06/29 17:29:23;;;;;;;2.08;1.60;;;;;;;-145.68;37.21;71769.22;10534552;28;20437;-73
2023/06/29 17:34:24;;;;;;;5.10;1.90;;;;;;;-145.68;37.56;71831.16;10533894;28;20246;-73
2023/06/29 17:39:24;;;;;;;4.05;2.17;;;;;;;-145.68;37.62;71861.13;10534486;28;20551;-73
2023/06/29 17:44:25;;;;;;;2.20;2.00;;;;;;;-145.68;38.72;71909.06;10533937;28;20198;-73
2023/06/29 17:49:26;;;;;;;2.22;1.80;;;;;;;-145.68;39.41;71917.06;10534138;28;20431;-72
2023/06/29 17:54:26;;;;;;;6.70;1.48;;;;;;;-145.68;40.10;71937.03;10534589;28;20234;-73
2023/06/29 17:59:27;;;;;;;3.55;1.55;;;;;;;-145.68;39.54;71933.03;10533126;28;20757;-73
2023/06/29 18:04:27;;;;;;;2.72;1.83;;;;;;;-145.68;39.26;71907.06;10533990;28;20553;-73
2023/06/29 18:09:28;;;;;;;3.92;1.83;;;;;;;-145.68;40.60;71955.03;10515114;28;20202;-72
2023/06/29 18:14:28;;;;;;;2.55;1.85;;;;;;;-145.68;41.35;72000.97;10533412;28;20182;-73
2023/06/29 18:19:28;;;;;;;3.03;1.73;;;;;;;-145.68;40.93;71995.00;10533357;28;20229;-72
2023/06/29 18:24:30;;;;;;;3.53;2.10;;;;;;;-145.68;41.76;71995.00;10539762;28;20194;-72
2023/06/29 18:29:30;;;;;;;112.97;80.75;;;;;;;-145.68;43.98;72064.91;10541663;28;20187;-72
2023/06/29 18:34:31;;;;;;;23.50;12.88;;;;;;;-145.68;47.87;72236.75;10540878;28;20702;-72
2023/06/29 18:39:31;;;;;;;10.63;4.38;;;;;;;-145.68;50.00;72320.69;10523316;28;20363;-73
2023/06/29 18:44:31;;;;;;;12.25;8.35;;;;;;;-145.68;52.79;72444.56;10540689;28;20191;-72
2023/06/29 18:49:34;;;;;;;8.70;5.53;;;;;;;-145.68;53.61;72432.59;10540861;28;20673;-72
2023/06/29 18:54:35;;;;;;;5.57;2.00;;;;;;;-145.68;56.11;72576.47;10540824;28;20284;-75
2023/06/29 18:59:37;;;;;;;4.55;1.88;;;;;;;-145.68;57.89;72604.44;10539901;28;20215;-74
2023/06/29 19:04:38;;;;;;;4.57;2.75;;;;;;;-145.68;58.11;72580.47;10522660;28;20214;-74
2023/06/29 19:09:38;;;;;;;6.18;2.53;;;;;;;-145.68;58.75;72614.44;10551924;28;20638;-74
2023/06/29 19:14:38;;;;;;;3.85;2.10;;;;;;;-145.68;60.71;72698.34;10540064;28;20557;-74
2023/06/29 19:19:39;;;;;;;4.18;2.22;;;;;;;-145.68;61.78;72706.34;10552501;28;20240;-74
2023/06/29 19:24:39;;;;;;;4.53;2.88;;;;;;;-145.68;61.43;72702.34;10580264;28;20178;-74
2023/06/29 19:29:39;;;;;;;7.57;2.58;;;;;;;-145.68;61.80;72742.31;10580204;28;20185;-74
2023/06/29 19:34:40;;;;;;;6.40;2.65;;;;;;;-145.68;63.58;72760.31;10580450;28;20232;-75
2023/06/29 19:39:40;;;;;;;6.38;2.88;;;;;;;-145.68;64.87;72788.28;10580411;28;20218;-74
2023/06/29 19:44:40;;;;;;;6.18;3.40;;;;;;;-145.68;63.91;72790.28;10580743;28;20711;-74
2023/06/29 19:49:41;;;;;;;8.95;3.42;;;;;;;-145.68;63.67;72812.28;10580606;28;20246;-75
2023/06/29 19:54:41;;;;;;;5.15;3.28;;;;;;;-145.68;63.28;72806.28;10580253;28;20198;-74
2023/06/29 19:59:42;;;;;;;5.82;2.95;;;;;;;-145.68;63.98;72824.25;10579840;28;20273;-75
2023/06/29 20:04:42;;;;;;;4.30;2.40;;;;;;;-145.68;64.90;72850.25;10561523;28;20188;-74
2023/06/29 20:09:42;;;;;;;2.58;2.10;;;;;;;-145.68;65.22;72870.22;10579432;28;20261;-74
2023/06/29 20:14:43;;;;;;;6.32;2.70;;;;;;;-145.68;65.58;72876.22;10579465;28;20688;-74
2023/06/29 20:19:43;;;;;;;2.58;2.38;;;;;;;-145.68;65.81;72894.22;10579288;28;20690;-74
2023/06/29 20:24:44;;;;;;;5.70;2.75;;;;;;;-145.68;65.90;72898.19;10579056;28;20552;-74
2023/06/29 20:29:45;;;;;;;4.32;2.40;;;;;;;-145.68;65.38;72888.22;10578860;28;20285;-74
2023/06/29 20:34:46;;;;;;;6.18;2.55;;;;;;;-145.68;63.96;72872.22;10578910;28;20241;-74
2023/06/29 20:39:46;;;;;;;10.10;2.40;;;;;;;-145.68;64.28;72872.22;10577964;28;20214;-74
2023/06/29 20:44:49;;;;;;;4.25;2.30;;;;;;;-145.68;65.10;72872.22;10577738;28;20186;-74
2023/06/29 20:49:50;;;;;;;4.20;2.65;;;;;;;-145.68;65.15;72890.22;10577868;28;20522;-74
2023/06/29 20:54:50;;;;;;;3.60;2.60;;;;;;;-145.68;64.65;72876.22;10577660;28;20189;-74
2023/06/29 20:59:50;;;;;;;6.80;2.65;;;;;;;-145.68;63.84;72856.22;10577704;28;20216;-74
2023/06/29 21:04:51;;;;;;;4.45;2.55;;;;;;;-145.68;63.74;72872.22;10576265;28;20288;-73
2023/06/29 21:09:51;;;;;;;4.57;2.40;;;;;;;-145.68;64.10;72852.25;10577300;28;20264;-74
2023/06/29 21:14:52;;;;;;;5.90;2.42;;;;;;;-145.68;63.63;72848.25;10577370;28;20190;-74
2023/06/29 21:19:52;;;;;;;4.85;2.72;;;;;;;-145.68;64.20;72856.22;10577225;28;20283;-74
2023/06/29 21:24:53;;;;;;;5.25;2.55;;;;;;;-145.68;64.56;72860.22;10577150;28;20182;-74
2023/06/29 21:29:55;;;;;;;4.25;2.47;;;;;;;-145.68;64.05;72856.22;10576686;28;20185;-73
2023/06/29 21:34:55;;;;;;;4.90;2.17;;;;;;;-145.68;64.42;72854.25;10558661;28;20233;-73
2023/06/29 21:39:55;;;;;;;3.53;2.22;;;;;;;-145.68;64.22;72840.25;10576258;28;20221;-74
2023/06/29 21:44:56;;;;;;;6.22;2.55;;;;;;;-145.68;64.39;72844.25;10576480;28;20197;-74
2023/06/29 21:49:56;;;;;;;4.30;2.80;;;;;;;-145.68;64.38;72834.25;10576125;28;20657;-73
2023/06/29 21:54:56;;;;;;;3.40;2.38;;;;;;;-145.68;64.26;72836.25;10576048;28;20564;-73
2023/06/29 21:59:57;;;;;;;2.67;2.10;;;;;;;-145.68;64.41;72842.25;10576173;28;20650;-73
2023/06/29 22:04:57;;;;;;;5.68;2.17;;;;;;;-145.68;64.18;72836.25;10575407;28;20582;-74
2023/06/29 22:09:58;;;;;;;4.03;2.33;;;;;;;-145.68;64.54;72840.25;10575960;28;20185;-73
2023/06/29 22:14:58;;;;;;;5.95;3.15;;;;;;;-145.68;64.86;72842.25;10573361;28;20193;-74
2023/06/29 22:20:17;;;;;;;4.22;2.95;;;;;;;-145.68;64.38;72824.25;10532851;28;20224;-74
2023/06/29 22:25:17;;;;;;;6.35;2.88;;;;;;;-145.68;63.72;72808.28;10533936;28;20191;-73
2023/06/29 22:30:17;;;;;;;4.68;2.38;;;;;;;-145.68;63.99;72808.28;10533182;28;20557;-74
2023/06/29 22:35:18;;;;;;;4.30;2.67;;;;;;;-145.68;64.12;72812.28;10494527;28;20235;-74
2023/06/29 22:40:18;;;;;;;2.88;2.13;;;;;;;-145.68;64.08;72812.28;10524274;28;20251;-74
2023/06/29 22:45:18;;;;;;;4.85;2.25;;;;;;;-145.68;64.20;72806.28;10533186;28;20281;-73